sensor_id;sensor_type;location;lat;lon;timestamp;P1;P2;P0
55459;PMS5003;41326;45.302;-122.946;2023-02-01T00:00:57;0;0;
55459;PMS5003;41326;45.302;-122.946;2023-02-01T00:03:27;0;0;
55459;PMS5003;41326;45.302;-122.946;2023-02-01T00:05:57;0;0;
55459;PMS5003;41326;45.302;-122.946;2023-02-01T00:08:27;0;0;
55459;PMS5003;41326;45.302;-122.946;2023-02-01T00:10:59;0;0;
55459;PMS5003;41326;45.302;-122.946;2023-02-01T00:13:29;0;0;
55459;PMS5003;41326;45.302;-122.946;2023-02-01T00:18:28;0;0;
55459;PMS5003;41326;45.302;-122.946;2023-02-01T00:20:58;0;0;
55459;PMS5003;41326;45.302;-122.946;2023-02-01T00:23:31;0;0;
55459;PMS5003;41326;45.302;-122.946;2023-02-01T00:26:18;0;0;
55459;PMS5003;41326;45.302;-122.946;2023-02-01T00:28:29;2;0;
55459;PMS5003;41326;45.302;-122.946;2023-02-01T00:31:00;0;0;
55459;PMS5003;41326;45.302;-122.946;2023-02-01T00:33:30;0;0;
55459;PMS5003;41326;45.302;-122.946;2023-02-01T00:36:01;0;0;
55459;PMS5003;41326;45.302;-122.946;2023-02-01T00:38:31;0;0;
55459;PMS5003;41326;45.302;-122.946;2023-02-01T00:41:03;0;0;
55459;PMS5003;41326;45.302;-122.946;2023-02-01T00:43:32;0;0;
55459;PMS5003;41326;45.302;-122.946;2023-02-01T00:46:02;0;0;
55459;PMS5003;41326;45.302;-122.946;2023-02-01T00:48:33;0;0;
55459;PMS5003;41326;45.302;-122.946;2023-02-01T00:51:04;0;0;
55459;PMS5003;41326;45.302;-122.946;2023-02-01T00:53:34;0;0;
55459;PMS5003;41326;45.302;-122.946;2023-02-01T00:56:05;0;0;
55459;PMS5003;41326;45.302;-122.946;2023-02-01T00:58:35;0;0;
55459;PMS5003;41326;45.302;-122.946;2023-02-01T01:01:07;1;0;
55459;PMS5003;41326;45.302;-122.946;2023-02-01T01:03:37;0;0;
55459;PMS5003;41326;45.302;-122.946;2023-02-01T01:06:07;0;0;
55459;PMS5003;41326;45.302;-122.946;2023-02-01T01:08:37;0;0;
55459;PMS5003;41326;45.302;-122.946;2023-02-01T01:11:08;0;0;
55459;PMS5003;41326;45.302;-122.946;2023-02-01T01:13:38;0;0;
55459;PMS5003;41326;45.302;-122.946;2023-02-01T01:16:09;2;1;
55459;PMS5003;41326;45.302;-122.946;2023-02-01T01:18:39;0;0;
55459;PMS5003;41326;45.302;-122.946;2023-02-01T01:21:09;0;0;
55459;PMS5003;41326;45.302;-122.946;2023-02-01T01:23:39;0;0;
55459;PMS5003;41326;45.302;-122.946;2023-02-01T01:26:11;1;0;
55459;PMS5003;41326;45.302;-122.946;2023-02-01T01:28:40;1;0;
55459;PMS5003;41326;45.302;-122.946;2023-02-01T01:31:11;0;0;
55459;PMS5003;41326;45.302;-122.946;2023-02-01T01:33:41;0;0;
55459;PMS5003;41326;45.302;-122.946;2023-02-01T01:36:11;0;0;
55459;PMS5003;41326;45.302;-122.946;2023-02-01T01:38:41;0;0;
55459;PMS5003;41326;45.302;-122.946;2023-02-01T01:41:13;0;0;
55459;PMS5003;41326;45.302;-122.946;2023-02-01T01:48:42;0;0;
55459;PMS5003;41326;45.302;-122.946;2023-02-01T01:51:12;0;0;
55459;PMS5003;41326;45.302;-122.946;2023-02-01T01:53:43;0;0;
55459;PMS5003;41326;45.302;-122.946;2023-02-01T01:56:14;0;0;
55459;PMS5003;41326;45.302;-122.946;2023-02-01T01:58:43;0;0;
55459;PMS5003;41326;45.302;-122.946;2023-02-01T02:01:14;0;0;
55459;PMS5003;41326;45.302;-122.946;2023-02-01T02:03:44;0;0;
55459;PMS5003;41326;45.302;-122.946;2023-02-01T02:06:17;0;0;
55459;PMS5003;41326;45.302;-122.946;2023-02-01T02:08:45;0;0;
55459;PMS5003;41326;45.302;-122.946;2023-02-01T02:11:16;0;0;
55459;PMS5003;41326;45.302;-122.946;2023-02-01T02:13:47;0;0;
55459;PMS5003;41326;45.302;-122.946;2023-02-01T02:16:21;0;0;
55459;PMS5003;41326;45.302;-122.946;2023-02-01T02:18:49;0;0;
55459;PMS5003;41326;45.302;-122.946;2023-02-01T02:21:18;1;0;
55459;PMS5003;41326;45.302;-122.946;2023-02-01T02:31:24;0;0;
55459;PMS5003;41326;45.302;-122.946;2023-02-01T02:33:52;2;1;
55459;PMS5003;41326;45.302;-122.946;2023-02-01T02:36:21;0;0;
55459;PMS5003;41326;45.302;-122.946;2023-02-01T02:38:52;0;0;
55459;PMS5003;41326;45.302;-122.946;2023-02-01T02:41:22;0;0;
55459;PMS5003;41326;45.302;-122.946;2023-02-01T02:43:51;0;0;
55459;PMS5003;41326;45.302;-122.946;2023-02-01T02:46:22;1;0;
55459;PMS5003;41326;45.302;-122.946;2023-02-01T02:48:52;0;0;
55459;PMS5003;41326;45.302;-122.946;2023-02-01T02:52:29;0;0;
55459;PMS5003;41326;45.302;-122.946;2023-02-01T02:55:00;1;1;
55459;PMS5003;41326;45.302;-122.946;2023-02-01T02:57:30;0;0;
55459;PMS5003;41326;45.302;-122.946;2023-02-01T03:00:00;0;0;
55459;PMS5003;41326;45.302;-122.946;2023-02-01T03:02:31;0;0;
55459;PMS5003;41326;45.302;-122.946;2023-02-01T03:05:01;0;0;
55459;PMS5003;41326;45.302;-122.946;2023-02-01T03:10:03;0;0;
55459;PMS5003;41326;45.302;-122.946;2023-02-01T03:12:32;0;0;
55459;PMS5003;41326;45.302;-122.946;2023-02-01T03:15:04;0;0;
55459;PMS5003;41326;45.302;-122.946;2023-02-01T03:17:33;0;0;
55459;PMS5003;41326;45.302;-122.946;2023-02-01T03:20:03;0;0;
55459;PMS5003;41326;45.302;-122.946;2023-02-01T03:22:33;0;0;
55459;PMS5003;41326;45.302;-122.946;2023-02-01T03:25:05;0;0;
55459;PMS5003;41326;45.302;-122.946;2023-02-01T03:27:35;0;0;
55459;PMS5003;41326;45.302;-122.946;2023-02-01T03:30:06;0;0;
55459;PMS5003;41326;45.302;-122.946;2023-02-01T03:32:35;0;0;
55459;PMS5003;41326;45.302;-122.946;2023-02-01T03:35:05;1;1;
55459;PMS5003;41326;45.302;-122.946;2023-02-01T03:37:35;1;1;
55459;PMS5003;41326;45.302;-122.946;2023-02-01T03:40:06;0;0;
55459;PMS5003;41326;45.302;-122.946;2023-02-01T03:42:37;2;0;
55459;PMS5003;41326;45.302;-122.946;2023-02-01T03:45:07;0;0;
55459;PMS5003;41326;45.302;-122.946;2023-02-01T03:47:37;0;0;
55459;PMS5003;41326;45.302;-122.946;2023-02-01T03:50:08;0;0;
55459;PMS5003;41326;45.302;-122.946;2023-02-01T03:52:38;1;1;
55459;PMS5003;41326;45.302;-122.946;2023-02-01T03:55:07;1;0;
55459;PMS5003;41326;45.302;-122.946;2023-02-01T03:57:39;1;1;
55459;PMS5003;41326;45.302;-122.946;2023-02-01T04:00:09;0;0;
55459;PMS5003;41326;45.302;-122.946;2023-02-01T04:02:38;0;0;
55459;PMS5003;41326;45.302;-122.946;2023-02-01T04:05:09;0;0;
55459;PMS5003;41326;45.302;-122.946;2023-02-01T04:07:39;0;0;
55459;PMS5003;41326;45.302;-122.946;2023-02-01T04:10:10;0;0;
55459;PMS5003;41326;45.302;-122.946;2023-02-01T04:12:40;0;0;
55459;PMS5003;41326;45.302;-122.946;2023-02-01T04:15:10;0;0;
55459;PMS5003;41326;45.302;-122.946;2023-02-01T04:17:40;0;0;
55459;PMS5003;41326;45.302;-122.946;2023-02-01T04:20:11;0;0;
55459;PMS5003;41326;45.302;-122.946;2023-02-01T04:22:41;0;0;
55459;PMS5003;41326;45.302;-122.946;2023-02-01T04:25:11;0;0;
55459;PMS5003;41326;45.302;-122.946;2023-02-01T04:27:41;0;0;
55459;PMS5003;41326;45.302;-122.946;2023-02-01T04:30:12;0;0;
55459;PMS5003;41326;45.302;-122.946;2023-02-01T04:32:41;0;0;
55459;PMS5003;41326;45.302;-122.946;2023-02-01T04:35:11;0;0;
55459;PMS5003;41326;45.302;-122.946;2023-02-01T04:37:41;0;0;
55459;PMS5003;41326;45.302;-122.946;2023-02-01T04:40:12;0;0;
55459;PMS5003;41326;45.302;-122.946;2023-02-01T04:42:42;0;0;
55459;PMS5003;41326;45.302;-122.946;2023-02-01T04:45:12;0;0;
55459;PMS5003;41326;45.302;-122.946;2023-02-01T04:47:42;0;0;
55459;PMS5003;41326;45.302;-122.946;2023-02-01T04:50:13;0;0;
55459;PMS5003;41326;45.302;-122.946;2023-02-01T04:52:43;0;0;
55459;PMS5003;41326;45.302;-122.946;2023-02-01T04:55:14;0;0;
55459;PMS5003;41326;45.302;-122.946;2023-02-01T04:57:44;0;0;
55459;PMS5003;41326;45.302;-122.946;2023-02-01T05:00:15;0;0;
55459;PMS5003;41326;45.302;-122.946;2023-02-01T05:02:45;0;0;
55459;PMS5003;41326;45.302;-122.946;2023-02-01T05:05:16;1;1;
55459;PMS5003;41326;45.302;-122.946;2023-02-01T05:07:46;0;0;
55459;PMS5003;41326;45.302;-122.946;2023-02-01T05:10:16;1;0;
55459;PMS5003;41326;45.302;-122.946;2023-02-01T05:12:47;0;0;
55459;PMS5003;41326;45.302;-122.946;2023-02-01T05:15:17;2;0;
55459;PMS5003;41326;45.302;-122.946;2023-02-01T05:17:48;0;0;
55459;PMS5003;41326;45.302;-122.946;2023-02-01T05:20:18;0;0;
55459;PMS5003;41326;45.302;-122.946;2023-02-01T05:22:49;1;0;
55459;PMS5003;41326;45.302;-122.946;2023-02-01T05:25:18;1;0;
55459;PMS5003;41326;45.302;-122.946;2023-02-01T05:27:49;1;1;
55459;PMS5003;41326;45.302;-122.946;2023-02-01T05:30:19;1;1;
55459;PMS5003;41326;45.302;-122.946;2023-02-01T05:32:50;0;0;
55459;PMS5003;41326;45.302;-122.946;2023-02-01T05:35:20;1;1;
55459;PMS5003;41326;45.302;-122.946;2023-02-01T05:37:51;3;2;
55459;PMS5003;41326;45.302;-122.946;2023-02-01T05:40:21;0;0;
55459;PMS5003;41326;45.302;-122.946;2023-02-01T05:42:51;1;1;
55459;PMS5003;41326;45.302;-122.946;2023-02-01T05:45:21;2;2;
55459;PMS5003;41326;45.302;-122.946;2023-02-01T05:47:52;1;1;
55459;PMS5003;41326;45.302;-122.946;2023-02-01T05:50:23;1;1;
55459;PMS5003;41326;45.302;-122.946;2023-02-01T05:52:53;1;1;
55459;PMS5003;41326;45.302;-122.946;2023-02-01T05:55:23;4;1;
55459;PMS5003;41326;45.302;-122.946;2023-02-01T05:57:53;2;2;
55459;PMS5003;41326;45.302;-122.946;2023-02-01T06:00:23;5;3;
55459;PMS5003;41326;45.302;-122.946;2023-02-01T06:02:54;4;4;
55459;PMS5003;41326;45.302;-122.946;2023-02-01T06:05:24;4;3;
55459;PMS5003;41326;45.302;-122.946;2023-02-01T06:07:55;2;2;
55459;PMS5003;41326;45.302;-122.946;2023-02-01T06:10:25;3;1;
55459;PMS5003;41326;45.302;-122.946;2023-02-01T06:12:55;3;2;
55459;PMS5003;41326;45.302;-122.946;2023-02-01T06:15:25;6;5;
55459;PMS5003;41326;45.302;-122.946;2023-02-01T06:17:55;4;3;
55459;PMS5003;41326;45.302;-122.946;2023-02-01T06:20:25;5;4;
55459;PMS5003;41326;45.302;-122.946;2023-02-01T06:22:56;2;2;
55459;PMS5003;41326;45.302;-122.946;2023-02-01T06:25:26;6;4;
55459;PMS5003;41326;45.302;-122.946;2023-02-01T06:28:00;7;6;
55459;PMS5003;41326;45.302;-122.946;2023-02-01T06:30:27;6;5;
55459;PMS5003;41326;45.302;-122.946;2023-02-01T06:32:57;6;4;
55459;PMS5003;41326;45.302;-122.946;2023-02-01T06:35:27;3;3;
55459;PMS5003;41326;45.302;-122.946;2023-02-01T06:37:58;5;3;
55459;PMS5003;41326;45.302;-122.946;2023-02-01T06:40:28;5;3;
55459;PMS5003;41326;45.302;-122.946;2023-02-01T06:42:58;5;4;
55459;PMS5003;41326;45.302;-122.946;2023-02-01T06:45:29;1;1;
55459;PMS5003;41326;45.302;-122.946;2023-02-01T06:47:59;3;3;
55459;PMS5003;41326;45.302;-122.946;2023-02-01T06:50:29;3;3;
55459;PMS5003;41326;45.302;-122.946;2023-02-01T06:52:59;4;3;
55459;PMS5003;41326;45.302;-122.946;2023-02-01T06:55:30;4;4;
55459;PMS5003;41326;45.302;-122.946;2023-02-01T06:58:00;3;3;
55459;PMS5003;41326;45.302;-122.946;2023-02-01T07:00:30;6;6;
55459;PMS5003;41326;45.302;-122.946;2023-02-01T07:03:01;6;5;
55459;PMS5003;41326;45.302;-122.946;2023-02-01T07:05:31;5;5;
55459;PMS5003;41326;45.302;-122.946;2023-02-01T07:08:02;6;4;
55459;PMS5003;41326;45.302;-122.946;2023-02-01T07:10:32;5;4;
55459;PMS5003;41326;45.302;-122.946;2023-02-01T07:13:02;4;4;
55459;PMS5003;41326;45.302;-122.946;2023-02-01T07:15:32;7;4;
55459;PMS5003;41326;45.302;-122.946;2023-02-01T07:18:03;6;4;
55459;PMS5003;41326;45.302;-122.946;2023-02-01T07:20:33;4;4;
55459;PMS5003;41326;45.302;-122.946;2023-02-01T07:23:03;5;3;
55459;PMS5003;41326;45.302;-122.946;2023-02-01T07:25:34;8;7;
55459;PMS5003;41326;45.302;-122.946;2023-02-01T07:28:04;4;4;
55459;PMS5003;41326;45.302;-122.946;2023-02-01T07:30:34;3;2;
55459;PMS5003;41326;45.302;-122.946;2023-02-01T07:33:04;4;2;
55459;PMS5003;41326;45.302;-122.946;2023-02-01T07:35:35;2;2;
55459;PMS5003;41326;45.302;-122.946;2023-02-01T07:38:05;4;2;
55459;PMS5003;41326;45.302;-122.946;2023-02-01T07:40:35;2;2;
55459;PMS5003;41326;45.302;-122.946;2023-02-01T07:43:06;1;1;
55459;PMS5003;41326;45.302;-122.946;2023-02-01T07:45:36;3;1;
55459;PMS5003;41326;45.302;-122.946;2023-02-01T07:48:06;2;2;
55459;PMS5003;41326;45.302;-122.946;2023-02-01T07:50:36;2;2;
55459;PMS5003;41326;45.302;-122.946;2023-02-01T07:53:07;3;2;
55459;PMS5003;41326;45.302;-122.946;2023-02-01T07:55:37;3;2;
55459;PMS5003;41326;45.302;-122.946;2023-02-01T07:58:08;3;1;
55459;PMS5003;41326;45.302;-122.946;2023-02-01T08:00:38;1;1;
55459;PMS5003;41326;45.302;-122.946;2023-02-01T08:03:09;2;2;
55459;PMS5003;41326;45.302;-122.946;2023-02-01T08:05:39;1;1;
55459;PMS5003;41326;45.302;-122.946;2023-02-01T08:08:09;2;2;
55459;PMS5003;41326;45.302;-122.946;2023-02-01T08:10:40;0;0;
55459;PMS5003;41326;45.302;-122.946;2023-02-01T08:13:10;2;2;
55459;PMS5003;41326;45.302;-122.946;2023-02-01T08:15:40;0;0;
55459;PMS5003;41326;45.302;-122.946;2023-02-01T08:18:09;1;1;
55459;PMS5003;41326;45.302;-122.946;2023-02-01T08:20:40;0;0;
55459;PMS5003;41326;45.302;-122.946;2023-02-01T08:23:10;2;1;
55459;PMS5003;41326;45.302;-122.946;2023-02-01T08:25:40;1;1;
55459;PMS5003;41326;45.302;-122.946;2023-02-01T08:28:11;1;1;
55459;PMS5003;41326;45.302;-122.946;2023-02-01T08:30:42;1;1;
55459;PMS5003;41326;45.302;-122.946;2023-02-01T08:33:12;0;0;
55459;PMS5003;41326;45.302;-122.946;2023-02-01T08:35:42;0;0;
55459;PMS5003;41326;45.302;-122.946;2023-02-01T08:38:13;1;1;
55459;PMS5003;41326;45.302;-122.946;2023-02-01T08:40:43;0;0;
55459;PMS5003;41326;45.302;-122.946;2023-02-01T08:43:13;1;1;
55459;PMS5003;41326;45.302;-122.946;2023-02-01T08:45:44;2;2;
55459;PMS5003;41326;45.302;-122.946;2023-02-01T08:48:14;2;1;
55459;PMS5003;41326;45.302;-122.946;2023-02-01T08:50:45;0;0;
55459;PMS5003;41326;45.302;-122.946;2023-02-01T08:53:16;1;0;
55459;PMS5003;41326;45.302;-122.946;2023-02-01T08:55:46;1;1;
55459;PMS5003;41326;45.302;-122.946;2023-02-01T08:58:16;0;0;
55459;PMS5003;41326;45.302;-122.946;2023-02-01T09:00:47;0;0;
55459;PMS5003;41326;45.302;-122.946;2023-02-01T09:03:17;1;1;
55459;PMS5003;41326;45.302;-122.946;2023-02-01T09:05:47;0;0;
55459;PMS5003;41326;45.302;-122.946;2023-02-01T09:08:18;0;0;
55459;PMS5003;41326;45.302;-122.946;2023-02-01T09:10:48;0;0;
55459;PMS5003;41326;45.302;-122.946;2023-02-01T09:13:19;2;1;
55459;PMS5003;41326;45.302;-122.946;2023-02-01T09:15:50;1;1;
55459;PMS5003;41326;45.302;-122.946;2023-02-01T09:18:19;2;1;
55459;PMS5003;41326;45.302;-122.946;2023-02-01T09:20:49;1;1;
55459;PMS5003;41326;45.302;-122.946;2023-02-01T09:23:20;0;0;
55459;PMS5003;41326;45.302;-122.946;2023-02-01T09:25:50;1;1;
55459;PMS5003;41326;45.302;-122.946;2023-02-01T09:28:20;1;1;
55459;PMS5003;41326;45.302;-122.946;2023-02-01T09:30:55;1;1;
55459;PMS5003;41326;45.302;-122.946;2023-02-01T09:33:20;0;0;
55459;PMS5003;41326;45.302;-122.946;2023-02-01T09:35:55;2;0;
55459;PMS5003;41326;45.302;-122.946;2023-02-01T09:38:21;0;0;
55459;PMS5003;41326;45.302;-122.946;2023-02-01T09:40:51;0;0;
55459;PMS5003;41326;45.302;-122.946;2023-02-01T09:43:26;1;1;
55459;PMS5003;41326;45.302;-122.946;2023-02-01T09:45:55;11;8;
55459;PMS5003;41326;45.302;-122.946;2023-02-01T09:48:24;10;10;
55459;PMS5003;41326;45.302;-122.946;2023-02-01T09:50:54;9;6;
55459;PMS5003;41326;45.302;-122.946;2023-02-01T09:53:26;7;5;
55459;PMS5003;41326;45.302;-122.946;2023-02-01T09:55:55;6;3;
55459;PMS5003;41326;45.302;-122.946;2023-02-01T09:58:25;4;1;
55459;PMS5003;41326;45.302;-122.946;2023-02-01T10:00:56;3;3;
55459;PMS5003;41326;45.302;-122.946;2023-02-01T10:03:27;1;1;
55459;PMS5003;41326;45.302;-122.946;2023-02-01T10:06:01;1;1;
55459;PMS5003;41326;45.302;-122.946;2023-02-01T10:08:30;2;2;
55459;PMS5003;41326;45.302;-122.946;2023-02-01T10:10:57;5;0;
55459;PMS5003;41326;45.302;-122.946;2023-02-01T10:16:01;1;1;
55459;PMS5003;41326;45.302;-122.946;2023-02-01T10:18:33;1;1;
55459;PMS5003;41326;45.302;-122.946;2023-02-01T10:21:02;2;1;
55459;PMS5003;41326;45.302;-122.946;2023-02-01T10:26:00;1;1;
55459;PMS5003;41326;45.302;-122.946;2023-02-01T10:28:29;3;2;
55459;PMS5003;41326;45.302;-122.946;2023-02-01T10:30:59;1;1;
55459;PMS5003;41326;45.302;-122.946;2023-02-01T10:33:32;0;0;
55459;PMS5003;41326;45.302;-122.946;2023-02-01T10:36:01;0;0;
55459;PMS5003;41326;45.302;-122.946;2023-02-01T10:38:31;1;1;
55459;PMS5003;41326;45.302;-122.946;2023-02-01T10:41:02;1;1;
55459;PMS5003;41326;45.302;-122.946;2023-02-01T10:43:31;3;2;
55459;PMS5003;41326;45.302;-122.946;2023-02-01T10:46:01;1;1;
55459;PMS5003;41326;45.302;-122.946;2023-02-01T10:48:32;1;1;
55459;PMS5003;41326;45.302;-122.946;2023-02-01T10:51:05;1;1;
55459;PMS5003;41326;45.302;-122.946;2023-02-01T10:53:35;0;0;
55459;PMS5003;41326;45.302;-122.946;2023-02-01T10:56:05;1;1;
55459;PMS5003;41326;45.302;-122.946;2023-02-01T10:58:34;1;0;
55459;PMS5003;41326;45.302;-122.946;2023-02-01T11:01:04;3;1;
55459;PMS5003;41326;45.302;-122.946;2023-02-01T11:03:36;1;1;
55459;PMS5003;41326;45.302;-122.946;2023-02-01T11:06:09;1;1;
55459;PMS5003;41326;45.302;-122.946;2023-02-01T11:08:35;0;0;
55459;PMS5003;41326;45.302;-122.946;2023-02-01T11:11:05;2;1;
55459;PMS5003;41326;45.302;-122.946;2023-02-01T11:13:37;1;0;
55459;PMS5003;41326;45.302;-122.946;2023-02-01T11:16:08;0;0;
55459;PMS5003;41326;45.302;-122.946;2023-02-01T11:18:37;1;1;
55459;PMS5003;41326;45.302;-122.946;2023-02-01T11:21:07;1;1;
55459;PMS5003;41326;45.302;-122.946;2023-02-01T11:23:41;1;1;
55459;PMS5003;41326;45.302;-122.946;2023-02-01T11:26:09;3;1;
55459;PMS5003;41326;45.302;-122.946;2023-02-01T11:28:38;4;2;
55459;PMS5003;41326;45.302;-122.946;2023-02-01T11:31:08;5;3;
55459;PMS5003;41326;45.302;-122.946;2023-02-01T11:33:38;0;0;
55459;PMS5003;41326;45.302;-122.946;2023-02-01T11:36:08;1;1;
55459;PMS5003;41326;45.302;-122.946;2023-02-01T11:38:38;1;1;
55459;PMS5003;41326;45.302;-122.946;2023-02-01T11:41:11;0;0;
55459;PMS5003;41326;45.302;-122.946;2023-02-01T11:43:42;3;3;
55459;PMS5003;41326;45.302;-122.946;2023-02-01T11:46:16;4;3;
55459;PMS5003;41326;45.302;-122.946;2023-02-01T11:48:39;2;2;
55459;PMS5003;41326;45.302;-122.946;2023-02-01T11:51:15;1;1;
55459;PMS5003;41326;45.302;-122.946;2023-02-01T11:53:44;3;2;
55459;PMS5003;41326;45.302;-122.946;2023-02-01T11:56:13;2;0;
55459;PMS5003;41326;45.302;-122.946;2023-02-01T12:01:15;2;0;
55459;PMS5003;41326;45.302;-122.946;2023-02-01T12:06:12;2;2;
55459;PMS5003;41326;45.302;-122.946;2023-02-01T12:08:49;2;2;
55459;PMS5003;41326;45.302;-122.946;2023-02-01T12:11:20;1;1;
55459;PMS5003;41326;45.302;-122.946;2023-02-01T12:13:46;1;0;
55459;PMS5003;41326;45.302;-122.946;2023-02-01T12:16:18;1;1;
55459;PMS5003;41326;45.302;-122.946;2023-02-01T12:18:49;2;1;
55459;PMS5003;41326;45.302;-122.946;2023-02-01T12:23:48;3;1;
55459;PMS5003;41326;45.302;-122.946;2023-02-01T12:28:52;0;0;
55459;PMS5003;41326;45.302;-122.946;2023-02-01T12:31:20;0;0;
55459;PMS5003;41326;45.302;-122.946;2023-02-01T12:33:50;0;0;
55459;PMS5003;41326;45.302;-122.946;2023-02-01T12:36:18;1;1;
55459;PMS5003;41326;45.302;-122.946;2023-02-01T12:38:48;0;0;
55459;PMS5003;41326;45.302;-122.946;2023-02-01T12:41:22;1;1;
55459;PMS5003;41326;45.302;-122.946;2023-02-01T12:43:48;0;0;
55459;PMS5003;41326;45.302;-122.946;2023-02-01T12:46:19;1;1;
55459;PMS5003;41326;45.302;-122.946;2023-02-01T12:48:50;1;0;
55459;PMS5003;41326;45.302;-122.946;2023-02-01T12:51:19;0;0;
55459;PMS5003;41326;45.302;-122.946;2023-02-01T12:53:50;1;1;
55459;PMS5003;41326;45.302;-122.946;2023-02-01T12:56:21;0;0;
55459;PMS5003;41326;45.302;-122.946;2023-02-01T12:58:50;1;1;
55459;PMS5003;41326;45.302;-122.946;2023-02-01T13:01:20;1;1;
55459;PMS5003;41326;45.302;-122.946;2023-02-01T13:03:54;0;0;
55459;PMS5003;41326;45.302;-122.946;2023-02-01T13:06:21;1;1;
55459;PMS5003;41326;45.302;-122.946;2023-02-01T13:08:52;0;0;
55459;PMS5003;41326;45.302;-122.946;2023-02-01T13:11:22;1;1;
55459;PMS5003;41326;45.302;-122.946;2023-02-01T13:13:54;1;1;
55459;PMS5003;41326;45.302;-122.946;2023-02-01T13:16:23;0;0;
55459;PMS5003;41326;45.302;-122.946;2023-02-01T13:18:53;4;2;
55459;PMS5003;41326;45.302;-122.946;2023-02-01T13:22:31;1;1;
55459;PMS5003;41326;45.302;-122.946;2023-02-01T13:25:00;3;1;
55459;PMS5003;41326;45.302;-122.946;2023-02-01T13:27:30;2;1;
55459;PMS5003;41326;45.302;-122.946;2023-02-01T13:30:01;3;2;
55459;PMS5003;41326;45.302;-122.946;2023-02-01T13:32:35;2;1;
55459;PMS5003;41326;45.302;-122.946;2023-02-01T13:35:06;3;1;
55459;PMS5003;41326;45.302;-122.946;2023-02-01T13:37:35;1;1;
55459;PMS5003;41326;45.302;-122.946;2023-02-01T13:40:07;3;2;
55459;PMS5003;41326;45.302;-122.946;2023-02-01T13:42:33;1;1;
55459;PMS5003;41326;45.302;-122.946;2023-02-01T13:45:03;2;1;
55459;PMS5003;41326;45.302;-122.946;2023-02-01T13:47:35;2;2;
55459;PMS5003;41326;45.302;-122.946;2023-02-01T13:50:04;2;1;
55459;PMS5003;41326;45.302;-122.946;2023-02-01T13:52:37;2;2;
55459;PMS5003;41326;45.302;-122.946;2023-02-01T13:57:36;4;3;
55459;PMS5003;41326;45.302;-122.946;2023-02-01T14:00:06;4;2;
55459;PMS5003;41326;45.302;-122.946;2023-02-01T14:02:42;2;2;
55459;PMS5003;41326;45.302;-122.946;2023-02-01T14:05:06;3;3;
55459;PMS5003;41326;45.302;-122.946;2023-02-01T14:07:36;3;1;
55459;PMS5003;41326;45.302;-122.946;2023-02-01T14:12:43;3;3;
55459;PMS5003;41326;45.302;-122.946;2023-02-01T14:15:17;4;4;
55459;PMS5003;41326;45.302;-122.946;2023-02-01T14:17:42;6;5;
55459;PMS5003;41326;45.302;-122.946;2023-02-01T14:22:43;7;4;
55459;PMS5003;41326;45.302;-122.946;2023-02-01T14:25:15;7;4;
55459;PMS5003;41326;45.302;-122.946;2023-02-01T14:27:44;8;8;
55459;PMS5003;41326;45.302;-122.946;2023-02-01T14:30:15;5;5;
55459;PMS5003;41326;45.302;-122.946;2023-02-01T14:32:44;8;6;
55459;PMS5003;41326;45.302;-122.946;2023-02-01T14:35:17;12;6;
55459;PMS5003;41326;45.302;-122.946;2023-02-01T14:37:44;7;5;
55459;PMS5003;41326;45.302;-122.946;2023-02-01T14:40:16;5;4;
55459;PMS5003;41326;45.302;-122.946;2023-02-01T14:42:45;9;6;
55459;PMS5003;41326;45.302;-122.946;2023-02-01T14:47:45;6;5;
55459;PMS5003;41326;45.302;-122.946;2023-02-01T14:50:20;7;5;
55459;PMS5003;41326;45.302;-122.946;2023-02-01T14:52:46;11;6;
55459;PMS5003;41326;45.302;-122.946;2023-02-01T14:55:16;6;5;
55459;PMS5003;41326;45.302;-122.946;2023-02-01T14:57:46;11;6;
55459;PMS5003;41326;45.302;-122.946;2023-02-01T15:00:18;7;5;
55459;PMS5003;41326;45.302;-122.946;2023-02-01T15:02:46;9;6;
55459;PMS5003;41326;45.302;-122.946;2023-02-01T15:07:46;11;6;
55459;PMS5003;41326;45.302;-122.946;2023-02-01T15:10:17;10;7;
55459;PMS5003;41326;45.302;-122.946;2023-02-01T15:12:46;7;6;
55459;PMS5003;41326;45.302;-122.946;2023-02-01T15:15:18;8;7;
55459;PMS5003;41326;45.302;-122.946;2023-02-01T15:17:51;8;6;
55459;PMS5003;41326;45.302;-122.946;2023-02-01T15:20:18;5;5;
55459;PMS5003;41326;45.302;-122.946;2023-02-01T15:25:19;10;8;
55459;PMS5003;41326;45.302;-122.946;2023-02-01T15:27:48;7;4;
55459;PMS5003;41326;45.302;-122.946;2023-02-01T15:30:19;7;6;
55459;PMS5003;41326;45.302;-122.946;2023-02-01T15:32:49;8;7;
55459;PMS5003;41326;45.302;-122.946;2023-02-01T15:37:49;10;7;
55459;PMS5003;41326;45.302;-122.946;2023-02-01T15:40:20;8;8;
55459;PMS5003;41326;45.302;-122.946;2023-02-01T15:42:51;7;5;
55459;PMS5003;41326;45.302;-122.946;2023-02-01T15:45:21;6;6;
55459;PMS5003;41326;45.302;-122.946;2023-02-01T15:47:51;11;7;
55459;PMS5003;41326;45.302;-122.946;2023-02-01T15:50:21;10;7;
55459;PMS5003;41326;45.302;-122.946;2023-02-01T15:52:52;8;6;
55459;PMS5003;41326;45.302;-122.946;2023-02-01T15:55:21;7;7;
55459;PMS5003;41326;45.302;-122.946;2023-02-01T15:57:52;8;7;
55459;PMS5003;41326;45.302;-122.946;2023-02-01T16:00:23;9;7;
55459;PMS5003;41326;45.302;-122.946;2023-02-01T16:02:54;7;7;
55459;PMS5003;41326;45.302;-122.946;2023-02-01T16:05:29;8;7;
55459;PMS5003;41326;45.302;-122.946;2023-02-01T16:07:55;8;7;
55459;PMS5003;41326;45.302;-122.946;2023-02-01T16:10:25;10;7;
55459;PMS5003;41326;45.302;-122.946;2023-02-01T16:12:54;8;7;
55459;PMS5003;41326;45.302;-122.946;2023-02-01T16:15:24;10;9;
55459;PMS5003;41326;45.302;-122.946;2023-02-01T16:17:54;9;9;
55459;PMS5003;41326;45.302;-122.946;2023-02-01T16:23:04;8;8;
55459;PMS5003;41326;45.302;-122.946;2023-02-01T16:25:34;10;8;
55459;PMS5003;41326;45.302;-122.946;2023-02-01T16:28:04;15;12;
55459;PMS5003;41326;45.302;-122.946;2023-02-01T16:30:35;10;8;
55459;PMS5003;41326;45.302;-122.946;2023-02-01T16:33:05;9;9;
55459;PMS5003;41326;45.302;-122.946;2023-02-01T16:35:36;12;10;
55459;PMS5003;41326;45.302;-122.946;2023-02-01T16:38:09;9;9;
55459;PMS5003;41326;45.302;-122.946;2023-02-01T16:40:36;7;5;
55459;PMS5003;41326;45.302;-122.946;2023-02-01T16:43:11;10;7;
55459;PMS5003;41326;45.302;-122.946;2023-02-01T16:45:37;9;8;
55459;PMS5003;41326;45.302;-122.946;2023-02-01T16:48:10;11;9;
55459;PMS5003;41326;45.302;-122.946;2023-02-01T16:50:38;11;9;
55459;PMS5003;41326;45.302;-122.946;2023-02-01T16:53:10;11;9;
55459;PMS5003;41326;45.302;-122.946;2023-02-01T16:55:38;10;8;
55459;PMS5003;41326;45.302;-122.946;2023-02-01T16:58:09;11;9;
55459;PMS5003;41326;45.302;-122.946;2023-02-01T17:00:39;12;9;
55459;PMS5003;41326;45.302;-122.946;2023-02-01T17:03:10;9;8;
55459;PMS5003;41326;45.302;-122.946;2023-02-01T17:05:40;13;10;
55459;PMS5003;41326;45.302;-122.946;2023-02-01T17:08:10;13;9;
55459;PMS5003;41326;45.302;-122.946;2023-02-01T17:10:40;12;11;
55459;PMS5003;41326;45.302;-122.946;2023-02-01T17:13:11;13;8;